Time;durP1;ratioP1;P1;durP2;ratioP2;P2;SDS_P1;SDS_P2;PMS_P1;PMS_P2;Temp;Humidity;BMP_temperature;BMP_pressure;BME280_temperature;BME280_humidity;BME280_pressure;Samples;Min_cycle;Max_cycle;Signal;HPM_P1;HPM_P2
2022/12/30 00:00:49;;;;;;;412.25;262.55;;;;;;;;;;4953428;29;20035;-86
2022/12/30 00:03:15;;;;;;;409.55;267.00;;;;;;;;;;4939177;29;20047;-87
2022/12/30 00:05:42;;;;;;;393.50;244.73;;;;;;;;;;4939306;29;20033;-87
2022/12/30 00:08:45;;;;;;;416.70;272.05;;;;;;;;;;4928388;29;20383;-89
2022/12/30 00:10:54;;;;;;;399.10;264.80;;;;;;;;;;4944658;29;20106;-85
2022/12/30 00:33:07;;;;;;;506.98;305.52;;;;;;;;;;4936789;29;20039;-83
2022/12/30 00:35:34;;;;;;;481.83;296.85;;;;;;;;;;4920283;29;20030;-84
2022/12/30 00:38:00;;;;;;;452.65;276.73;;;;;;;;;;4919880;29;20028;-84
2022/12/30 00:40:26;;;;;;;462.30;287.88;;;;;;;;;;4920001;29;20024;-87
2022/12/30 00:43:10;;;;;;;424.52;268.05;;;;;;;;;;4919760;29;20391;-84
2022/12/30 00:45:39;;;;;;;423.17;264.40;;;;;;;;;;4927102;29;20073;-85
2022/12/30 00:56:20;;;;;;;322.80;218.20;;;;;;;;;;4953248;29;20039;-87
2022/12/30 00:58:46;;;;;;;286.67;192.07;;;;;;;;;;4935539;29;20077;-85
2022/12/30 01:01:13;;;;;;;315.52;211.70;;;;;;;;;;4938567;29;20037;-84
2022/12/30 01:03:39;;;;;;;318.35;206.25;;;;;;;;;;4938795;29;20142;-85
2022/12/30 01:06:09;;;;;;;324.77;215.45;;;;;;;;;;4938512;29;20024;-84
2022/12/30 01:08:35;;;;;;;356.95;230.00;;;;;;;;;;4938758;29;20032;-83
2022/12/30 01:11:09;;;;;;;355.35;240.00;;;;;;;;;;4935943;28;20073;-91
2022/12/30 01:13:38;;;;;;;358.90;241.32;;;;;;;;;;4932142;29;20495;-88
2022/12/30 01:16:16;;;;;;;274.70;177.48;;;;;;;;;;4933811;29;20479;-86
2022/12/30 01:18:43;;;;;;;295.98;193.82;;;;;;;;;;4932607;28;20074;-86
2022/12/30 01:21:09;;;;;;;409.70;242.10;;;;;;;;;;4939912;29;20027;-88
2022/12/30 01:23:36;;;;;;;394.35;246.43;;;;;;;;;;4938251;29;20027;-85
2022/12/30 01:26:06;;;;;;;384.80;238.55;;;;;;;;;;4937982;29;20082;-88
2022/12/30 01:28:32;;;;;;;387.95;242.20;;;;;;;;;;4937778;29;20241;-88
2022/12/30 01:30:59;;;;;;;459.77;259.88;;;154.40;2252.80;;;;;;4938129;29;20492;-88
2022/12/30 01:33:25;;;;;;;361.25;228.38;;;154.30;2252.80;;;;;;4938564;29;20085;-86
2022/12/30 01:35:52;;;;;;;354.88;212.18;;;154.10;2252.80;;;;;;4938762;29;20430;-87
2022/12/30 01:38:17;;;;;;;434.85;242.02;;;153.80;2252.80;;;;;;4938362;29;20035;-89
2022/12/30 01:40:43;;;;;;;398.10;223.93;;;154.00;2252.80;;;;;;4940864;29;20031;-87
2022/12/30 01:43:15;;;;;;;267.35;156.07;;;154.00;2252.80;;;;;;4941939;29;20023;-87
2022/12/30 01:45:46;;;;;;;230.63;142.02;;;153.90;2252.80;;;;;;4941557;29;20531;-87
2022/12/30 01:48:30;;;;;;;258.98;155.82;;;153.90;2252.80;;;;;;4942432;29;20038;-87
2022/12/30 01:51:06;;;;;;;223.25;136.40;;;153.90;2252.80;;;;;;4942466;29;20034;-88
2022/12/30 01:53:35;;;;;;;189.75;120.60;;;153.90;2201.60;;;;;;4942370;29;20395;-86
2022/12/30 01:56:04;;;;;;;202.90;126.15;;;153.90;2252.80;;;;;;4941897;29;20023;-87
2022/12/30 01:58:43;;;;;;;207.23;131.32;;;153.90;2252.80;;;;;;4941692;29;20041;-88
2022/12/30 02:01:08;;;;;;;205.23;127.85;;;153.90;2252.80;;;;;;4942422;29;20195;-87
2022/12/30 02:03:39;;;;;;;200.25;131.93;;;;;;;;;;4941904;29;20539;-85
2022/12/30 02:06:06;;;;;;;198.40;126.05;;;154.00;1868.80;;;;;;4942230;29;20058;-88
2022/12/30 02:08:34;;;;;;;215.32;135.52;;;;;;;;;;4941857;29;20058;-85
2022/12/30 02:11:03;;;;;;;229.35;144.23;;;154.10;2252.80;;;;;;4941558;29;20050;-87
2022/12/30 02:13:29;;;;;;;276.30;167.52;;;154.00;2252.80;;;;;;4941877;29;20033;-87
2022/12/30 02:16:25;;;;;;;297.58;181.63;;;153.80;2252.80;;;;;;4941673;29;20118;-88
2022/12/30 02:19:10;;;;;;;295.83;178.60;;;;;;;;;;4941735;29;20035;-89
2022/12/30 02:21:40;;;;;;;312.40;192.98;;;;;;;;;;4941995;29;20039;-88
2022/12/30 02:24:25;;;;;;;304.13;189.38;;;;;;;;;;4941654;29;20023;-88
2022/12/30 02:27:04;;;;;;;357.17;197.73;;;;;;;;;;4941788;29;20028;-87
2022/12/30 02:29:48;;;;;;;316.00;182.98;;;;;;;;;;4941552;29;20035;-87
2022/12/30 02:32:36;;;;;;;334.35;186.27;;;153.80;2252.80;;;;;;4941604;29;20054;-86
2022/12/30 02:35:12;;;;;;;336.55;189.73;;;;;;;;;;4940665;29;20055;-87
2022/12/30 02:37:50;;;;;;;296.40;164.23;;;;;;;;;;4923482;29;20080;-87
2022/12/30 02:44:36;;;;;;;313.00;170.25;;;;;;;;;;4921651;29;20032;-86
2022/12/30 02:46:04;;;;;;;268.60;156.52;;;;;;;;;;4939455;29;20043;-88
2022/12/30 02:48:32;;;;;;;232.32;136.30;;;;;;;;;;4922122;29;20063;-88
2022/12/30 02:53:44;;;;;;;151.80;96.40;;;;;;;;;;4939163;29;20495;-86
2022/12/30 02:56:10;;;;;;;148.02;94.22;;;;;;;;;;4922114;29;20031;-87
2022/12/30 02:58:39;;;;;;;142.85;95.00;;;;;;;;;;4921930;29;20059;-87
2022/12/30 03:04:17;;;;;;;136.30;86.93;;;;;;;;;;4924851;29;20096;-88
2022/12/30 03:06:53;;;;;;;118.07;74.53;;;;;;;;;;4902702;29;20020;-88
2022/12/30 03:09:38;;;;;;;113.43;73.22;;;;;;;;;;4915819;29;20023;-86
2022/12/30 03:12:17;;;;;;;109.03;73.05;;;;;;;;;;4919010;29;20032;-88
2022/12/30 03:14:46;;;;;;;116.57;76.88;;;;;;;;;;4903263;29;20024;-88
2022/12/30 03:17:16;;;;;;;116.53;75.88;;;;;;;;;;4903034;29;20035;-88
2022/12/30 03:19:49;;;;;;;110.47;68.93;;;;;;;;;;4902753;29;20115;-89
2022/12/30 03:27:47;;;;;;;109.75;67.82;;;;;;;;;;4919851;29;20035;-87
2022/12/30 03:30:15;;;;;;;122.60;78.15;;;;;;;;;;4902688;29;20073;-88
2022/12/30 03:32:41;;;;;;;112.30;74.03;;;;;;;;;;4902363;29;20028;-88
2022/12/30 03:35:07;;;;;;;99.57;65.05;;;;;;;;;;4902645;29;20031;-87
2022/12/30 03:37:39;;;;;;;91.68;61.10;;;;;;;;;;4902732;29;20076;-88
2022/12/30 03:40:18;;;;;;;96.83;61.30;;;;;;;;;;4902625;29;20119;-87
2022/12/30 03:42:45;;;;;;;111.00;76.03;;;;;;;;;;4902627;29;20027;-88
2022/12/30 03:45:12;;;;;;;105.18;66.55;;;;;;;;;;4908181;29;20038;-88
2022/12/30 03:47:38;;;;;;;102.63;66.88;;;;;;;;;;4920553;29;20024;-87
2022/12/30 03:50:04;;;;;;;120.15;73.30;;;;;;;;;;4919960;29;20058;-87
2022/12/30 03:52:30;;;;;;;139.68;79.00;;;;;;;;;;4919816;29;20019;-87
2022/12/30 03:54:57;;;;;;;122.97;75.85;;;;;;;;;;4920934;29;20437;-87
2022/12/30 03:57:23;;;;;;;123.05;77.63;;;;;;;;;;4921223;29;20055;-87
2022/12/30 03:59:49;;;;;;;124.13;79.88;;;;;;;;;;4921292;29;20040;-87
2022/12/30 04:02:15;;;;;;;148.25;87.97;;;;;;;;;;4920123;29;20028;-88
2022/12/30 04:04:41;;;;;;;122.88;72.47;;;;;;;;;;4921154;29;20034;-88
2022/12/30 04:07:07;;;;;;;104.28;63.72;;;;;;;;;;4920906;29;20055;-87
2022/12/30 04:09:33;;;;;;;107.18;58.38;;;;;;;;;;4920677;29;20415;-87
2022/12/30 04:11:59;;;;;;;105.75;63.72;;;;;;;;;;4920873;29;20029;-87
2022/12/30 04:14:25;;;;;;;110.75;65.25;;;;;;;;;;4920012;29;20027;-88
2022/12/30 04:16:52;;;;;;;113.63;67.82;;;;;;;;;;4920772;29;20028;-89
2022/12/30 04:19:18;;;;;;;110.85;66.07;;;;;;;;;;4919978;29;20036;-87
2022/12/30 04:21:44;;;;;;;92.20;59.05;;;;;;;;;;4919267;29;20028;-86
2022/12/30 04:24:10;;;;;;;88.50;56.53;;;;;;;;;;4919951;29;20464;-87
2022/12/30 04:26:36;;;;;;;87.88;55.55;;;103.10;2227.20;;;;;;4919919;29;20024;-88
2022/12/30 04:29:02;;;;;;;93.68;56.95;;;;;;;;;;4920213;29;20038;-87
2022/12/30 04:31:31;;;;;;;96.80;57.70;;;;;;;;;;4937610;29;20047;-87
2022/12/30 04:37:03;;;;;;;;;;;;;;;;;;4922878;29;20043;-87
2022/12/30 04:39:34;;;;;;;96.60;60.85;;;;;;;;;;4918322;29;20308;-87
2022/12/30 04:42:03;;;;;;;98.30;60.47;;;;;;;;;;4901465;29;20040;-88
2022/12/30 04:44:30;;;;;;;117.63;75.07;;;;;;;;;;4917822;29;20028;-87
2022/12/30 04:46:57;;;;;;;118.82;75.65;;;;;;;;;;4918363;29;20088;-88
2022/12/30 04:53:01;;;;;;;171.95;111.05;;;;;;;;;;4918464;29;20031;-86
2022/12/30 04:55:54;;;;;;;117.57;74.22;;;;;;;;;;4910462;29;20043;-86
2022/12/30 04:58:24;;;;;;;114.53;72.85;;;;;;;;;;4916952;29;20068;-86
2022/12/30 05:01:00;;;;;;;121.45;74.35;;;;;;;;;;4900208;29;20561;-87
2022/12/30 05:03:45;;;;;;;132.98;78.47;;;;;;;;;;4917350;29;20079;-85
2022/12/30 05:06:12;;;;;;;89.80;59.25;;;;;;;;;;4900953;29;20020;-87
2022/12/30 05:08:41;;;;;;;90.22;59.33;;;;;;;;;;4885654;29;20028;-87
2022/12/30 05:14:16;;;;;;;101.15;66.15;;;;;;;;;;4917450;29;20437;-87
2022/12/30 05:16:43;;;;;;;121.30;76.93;;;;;;;;;;4901313;29;20051;-86
2022/12/30 05:19:09;;;;;;;121.53;77.22;;;;;;;;;;4884809;29;20047;-85
2022/12/30 05:21:35;;;;;;;139.27;83.95;;;;;;;;;;4900768;29;20028;-87
2022/12/30 05:26:48;;;;;;;146.68;84.65;;;;;;;;;;4917808;29;20031;-87
2022/12/30 05:29:15;;;;;;;129.88;79.15;;;;;;;;;;4901501;29;20507;-86
2022/12/30 05:31:47;;;;;;;129.18;76.65;;;;;;;;;;4900235;29;20024;-86
2022/12/30 05:34:23;;;;;;;123.00;73.18;;;;;;;;;;4916889;29;20043;-87
2022/12/30 05:37:08;;;;;;;123.93;77.13;;;;;;;;;;4884913;29;20063;-86
2022/12/30 05:43:13;;;;;;;119.03;71.25;;;;;;;;;;4917417;29;20031;-85
2022/12/30 05:52:30;;;;;;;130.15;74.93;;;;;;;;;;4871896;29;20461;-85
2022/12/30 06:49:43;;;;;;;226.55;125.85;;;;;;;;;;4899654;29;20073;-85
2022/12/30 06:58:56;;;;;;;273.08;157.32;;;;;;;;;;4900381;29;20044;-84
2022/12/30 07:08:07;;;;;;;379.10;237.98;;;;;;;;;;4856610;29;19948;-85
2022/12/30 07:48:06;;;;;;;153.90;99.30;;;;;;;;;;4917095;29;20039;-86
2022/12/30 07:50:33;;;;;;;168.18;109.32;;;;;;;;;;4916264;29;20040;-88
2022/12/30 07:53:00;;;;;;;245.82;154.13;;;;;;;;;;4916710;29;20032;-88
2022/12/30 07:55:26;;;;;;;260.08;164.40;;;;;;;;;;4901394;29;20032;-87
2022/12/30 08:00:56;;;;;;;250.85;158.85;;;;;;;;;;4923563;29;20031;-88
2022/12/30 08:06:26;;;;;;;242.45;161.75;;;;;;;;;;4923015;29;20039;-88
2022/12/30 08:08:53;;;;;;;251.30;156.85;;;;;;;;;;4937132;29;20031;-88
2022/12/30 08:14:07;;;;;;;269.17;178.02;;;;;;;;;;4936019;29;20043;-87
2022/12/30 08:16:33;;;;;;;295.92;193.38;;;;;;;;;;4936323;29;20102;-88
2022/12/30 08:18:59;;;;;;;313.38;205.75;;;;;;;;;;4936268;29;20122;-87
2022/12/30 08:21:25;;;;;;;271.75;179.88;;;;;;;;;;4936328;29;20047;-87
2022/12/30 08:23:52;;;;;;;285.67;185.38;;;;;;;;;;4936188;29;20103;-87
2022/12/30 08:26:19;;;;;;;329.75;208.32;;;;;;;;;;4936045;29;20070;-88
2022/12/30 08:28:45;;;;;;;348.50;222.82;;;;;;;;;;4934752;29;20023;-87
2022/12/30 08:31:13;;;;;;;280.70;191.65;;;;;;;;;;4935722;29;20031;-88
2022/12/30 08:33:39;;;;;;;274.52;182.80;;;;;;;;;;4935565;29;20027;-87
2022/12/30 08:36:07;;;;;;;265.67;177.52;;;;;;;;;;4935343;29;20023;-89
2022/12/30 08:38:34;;;;;;;273.30;177.88;;;;;;;;;;4935346;29;20031;-88
2022/12/30 08:41:07;;;;;;;253.77;169.00;;;;;;;;;;4936110;29;20038;-89
2022/12/30 08:43:34;;;;;;;261.15;176.15;;;;;;;;;;4936130;29;20429;-87
2022/12/30 08:46:00;;;;;;;262.95;183.93;;;;;;;;;;4936301;29;20116;-88
2022/12/30 08:48:26;;;;;;;236.20;155.48;;;;;;;;;;4935828;29;20082;-87
2022/12/30 08:50:56;;;;;;;228.52;151.57;;;;;;;;;;4936174;29;20384;-87
2022/12/30 08:53:22;;;;;;;157.48;107.95;;;;;;;;;;4936060;29;20020;-87
2022/12/30 08:55:48;;;;;;;172.48;118.82;;;;;;;;;;4935770;29;20485;-87
2022/12/30 08:58:14;;;;;;;192.27;128.52;;;;;;;;;;4935894;29;20465;-86
2022/12/30 09:00:41;;;;;;;187.05;126.95;;;;;;;;;;4935161;29;20049;-86
2022/12/30 09:03:07;;;;;;;193.23;132.50;;;;;;;;;;4935592;29;20034;-87
2022/12/30 09:05:33;;;;;;;247.77;165.48;;;;;;;;;;4933447;29;20054;-86
2022/12/30 09:07:59;;;;;;;251.48;169.35;;;;;;;;;;4916450;29;20028;-87
2022/12/30 09:10:26;;;;;;;236.43;161.30;;;154.40;2252.80;;;;;;4915900;29;20524;-86
2022/12/30 09:12:51;;;;;;;231.13;156.80;;;154.20;2252.80;;;;;;4916923;29;20028;-89
2022/12/30 09:15:17;;;;;;;207.23;143.85;;;154.30;2252.80;;;;;;4916647;29;20032;-87
2022/12/30 09:17:43;;;;;;;179.63;122.63;;;154.40;2252.80;;;;;;4916274;29;20469;-88
2022/12/30 09:20:09;;;;;;;150.55;103.03;;;179.20;2252.80;;;;;;4916797;29;20043;-87
2022/12/30 09:22:35;;;;;;;170.45;114.47;;;179.30;2252.80;;;;;;4915775;29;20071;-88
2022/12/30 09:25:00;;;;;;;197.20;128.93;;;179.60;2252.80;;;;;;4916631;29;20087;-87
2022/12/30 09:27:26;;;;;;;125.18;83.65;;;179.60;2252.80;;;;;;4916689;29;20050;-87
2022/12/30 09:29:52;;;;;;;125.00;89.82;;;179.70;2252.80;;;;;;4916518;29;20451;-87
2022/12/30 09:32:18;;;;;;;140.77;98.97;;;;;;;;;;4916582;29;20028;-87
2022/12/30 09:34:44;;;;;;;121.53;83.57;;;204.80;2252.80;;;;;;4916142;29;20020;-87
2022/12/30 09:37:10;;;;;;;102.90;70.57;;;;;;;;;;4915660;29;20035;-84
2022/12/30 09:39:36;;;;;;;124.00;86.10;;;;;;;;;;4917492;29;20468;-85
2022/12/30 09:45:03;;;;;;;110.63;78.43;;;205.10;2252.80;;;;;;4923757;29;20612;-86
2022/12/30 09:47:45;;;;;;;125.18;80.50;;;205.20;2252.80;;;;;;4935748;29;20035;-88
2022/12/30 09:50:33;;;;;;;127.57;87.45;;;;;;;;;;4935933;29;20032;-87
2022/12/30 09:52:59;;;;;;;120.90;82.03;;;;;;;;;;4935691;29;20028;-87
2022/12/30 09:55:30;;;;;;;155.55;107.65;;;;;;;;;;4935646;29;20024;-89
2022/12/30 09:57:58;;;;;;;96.90;66.13;;;;;;;;;;4935273;29;20118;-90
2022/12/30 10:00:24;;;;;;;93.32;64.45;;;;;;;;;;4935602;29;20036;-88
2022/12/30 10:02:59;;;;;;;84.80;56.10;;;;;;;;;;4939422;29;20102;-88
2022/12/30 10:05:33;;;;;;;76.28;54.00;;;;;;;;;;4939148;29;20111;-88
2022/12/30 10:08:06;;;;;;;91.47;63.05;;;;;;;;;;4935798;29;20175;-88
2022/12/30 10:10:38;;;;;;;79.57;54.70;;;;;;;;;;4929149;29;20020;-91
2022/12/30 10:13:04;;;;;;;91.50;58.55;;;;;;;;;;4928075;29;20035;-90
2022/12/30 10:15:39;;;;;;;86.30;56.85;;;;;;;;;;4931182;29;20020;-89
2022/12/30 10:18:14;;;;;;;77.03;52.83;;;;;;;;;;4930591;29;20026;-89
2022/12/30 10:20:59;;;;;;;62.35;44.08;;;;;;;;;;4933201;29;20032;-89
2022/12/30 10:23:31;;;;;;;54.88;42.30;;;;;;;;;;4930161;29;20024;-88
2022/12/30 10:25:57;;;;;;;68.07;47.70;;;;;;;;;;4937055;29;20186;-88
2022/12/30 10:28:52;;;;;;;59.83;44.40;;;;;;;;;;4928995;29;20063;-88
2022/12/30 10:31:24;;;;;;;57.60;37.92;;;;;;;;;;4916253;29;20040;-88
2022/12/30 10:33:51;;;;;;;57.28;40.28;;;;;;;;;;4927114;29;20404;-86
2022/12/30 10:36:21;;;;;;;51.55;38.80;;;;;;;;;;4932474;29;20052;-88
2022/12/30 10:38:47;;;;;;;66.90;48.90;;;;;;;;;;4929430;29;20032;-88
2022/12/30 10:41:13;;;;;;;69.60;48.55;;;;;;;;;;4929574;29;20397;-88
2022/12/30 10:43:48;;;;;;;48.60;34.83;;;;;;;;;;4929708;29;20142;-89
2022/12/30 10:46:17;;;;;;;56.33;39.38;;;;;;;;;;4927573;29;20468;-88
2022/12/30 10:49:02;;;;;;;50.03;36.47;;;;;;;;;;4928331;29;20056;-88
2022/12/30 10:51:29;;;;;;;51.53;37.47;;;;;;;;;;4928743;29;20028;-88
2022/12/30 10:53:55;;;;;;;46.67;33.67;;;;;;;;;;4932799;29;20023;-88
2022/12/30 10:56:26;;;;;;;61.63;43.65;;;;;;;;;;4931527;29;20023;-87
2022/12/30 10:58:54;;;;;;;52.75;36.28;;;;;;;;;;4930246;29;20024;-88
2022/12/30 11:01:22;;;;;;;52.28;35.97;;;;;;;;;;4929697;29;20024;-86
2022/12/30 11:03:52;;;;;;;50.25;35.70;;;;;;;;;;4929798;29;20035;-85
2022/12/30 11:06:27;;;;;;;48.47;33.50;;;;;;;;;;4929783;29;20027;-84
2022/12/30 11:08:54;;;;;;;42.90;31.15;;;;;;;;;;4935793;29;20028;-84
2022/12/30 11:14:42;;;;;;;35.10;26.58;;;;;;;;;;4937040;29;20027;-84
2022/12/30 11:17:08;;;;;;;29.25;22.70;;;;;;;;;;4937294;29;20039;-81
2022/12/30 11:19:34;;;;;;;42.85;28.73;;;;;;;;;;4924700;29;20028;-82
2022/12/30 11:22:02;;;;;;;48.60;31.80;;;;;;;;;;4927256;29;20377;-84
2022/12/30 11:24:29;;;;;;;54.47;33.13;;;;;;;;;;4929942;29;20472;-80
2022/12/30 11:26:55;;;;;;;45.10;32.42;;;;;;;;;;4911612;29;20024;-80
2022/12/30 11:29:22;;;;;;;43.83;27.42;;;332.80;2329.60;;;;;;4914481;29;20079;-80
2022/12/30 11:31:51;;;;;;;32.97;24.52;;;332.90;2329.60;;;;;;4915765;29;20071;-81
2022/12/30 11:34:16;;;;;;;50.92;35.25;;;333.10;2329.60;;;;;;4929514;29;20475;-81
2022/12/30 11:36:43;;;;;;;28.23;21.38;;;333.10;2329.60;;;;;;4919876;29;20047;-84
2022/12/30 11:39:10;;;;;;;39.90;30.38;;;;;;;;;;4912847;29;20136;-81
2022/12/30 11:41:50;;;;;;;35.65;23.02;;;;;;;;;;4910320;29;20028;-83
2022/12/30 11:44:23;;;;;;;36.53;26.48;;;;;;;;;;4914148;29;20027;-83
2022/12/30 11:46:51;;;;;;;27.77;19.35;;;358.50;2329.60;;;;;;4937059;29;20026;-83
2022/12/30 11:49:34;;;;;;;36.03;24.02;;;;;;;;;;4917687;29;20054;-80
2022/12/30 11:52:00;;;;;;;;;;;;;;;;;;4936621;29;20496;-82
2022/12/30 11:54:53;;;;;;;33.42;22.52;;;;;;;;;;4937752;29;19906;-81
2022/12/30 11:57:22;;;;;;;23.70;16.95;;;;;;;;;;4903097;29;20031;-80
2022/12/30 11:59:50;;;;;;;21.38;15.95;;;;;;;;;;4920270;29;20035;-82
2022/12/30 12:02:19;;;;;;;23.80;15.68;;;;;;;;;;4914797;29;20465;-80
2022/12/30 12:04:46;;;;;;;26.70;20.02;;;384.40;2329.60;;;;;;4912540;29;20382;-82
2022/12/30 12:07:20;;;;;;;28.40;20.55;;;384.30;2329.60;;;;;;4914265;29;20038;-84
2022/12/30 12:10:04;;;;;;;25.15;17.67;;;384.40;2329.60;;;;;;4919771;29;20510;-83
2022/12/30 12:12:47;;;;;;;39.85;28.80;;;384.60;2329.60;;;;;;4913040;29;20063;-82
2022/12/30 12:15:43;;;;;;;35.20;25.52;;;384.60;2329.60;;;;;;4910009;29;20031;-83
2022/12/30 12:18:23;;;;;;;38.90;28.73;;;384.30;2329.60;;;;;;4913047;29;20039;-81
2022/12/30 12:21:15;;;;;;;41.47;32.10;;;384.40;2329.60;;;;;;4937276;29;20083;-82
2022/12/30 12:24:16;;;;;;;46.78;32.42;;;384.10;2329.60;;;;;;4897841;29;20065;-82
2022/12/30 12:27:06;;;;;;;44.85;32.60;;;384.00;2329.60;;;;;;4920148;29;20044;-81
2022/12/30 12:29:33;;;;;;;42.15;28.60;;;384.10;2329.60;;;;;;4937740;29;20031;-82
2022/12/30 12:32:05;;;;;;;38.83;25.90;;;384.20;2329.60;;;;;;4916621;29;20027;-78
2022/12/30 12:34:52;;;;;;;33.10;23.38;;;384.00;2329.60;;;;;;4918846;29;20404;-82
2022/12/30 12:37:26;;;;;;;30.23;23.15;;;384.00;2329.60;;;;;;4918376;29;20032;-82
2022/12/30 12:40:16;;;;;;;32.08;23.15;;;384.20;2329.60;;;;;;4910692;29;20046;-78
2022/12/30 12:43:07;;;;;;;30.42;23.13;;;384.10;2329.60;;;;;;4918016;29;20024;-80
2022/12/30 12:45:51;;;;;;;47.08;24.15;;;384.00;2329.60;;;;;;4910675;29;20388;-81
2022/12/30 12:48:35;;;;;;;38.45;26.25;;;359.20;2329.60;;;;;;4920695;29;20055;-82
2022/12/30 12:51:31;;;;;;;37.42;26.58;;;359.10;2329.60;;;;;;4920192;29;20460;-81
2022/12/30 12:54:09;;;;;;;47.90;31.58;;;359.00;2329.60;;;;;;4919346;29;20031;-80
2022/12/30 12:56:50;;;;;;;38.33;29.48;;;359.00;2329.60;;;;;;4936839;29;20039;-80
2022/12/30 12:59:21;;;;;;;44.45;31.67;;;358.90;2329.60;;;;;;4919161;29;20086;-82
2022/12/30 13:02:05;;;;;;;44.33;32.35;;;358.90;2329.60;;;;;;4919679;29;20032;-81
2022/12/30 13:04:40;;;;;;;46.40;33.25;;;359.00;2329.60;;;;;;4923252;29;20471;-77
2022/12/30 13:07:36;;;;;;;44.05;32.58;;;359.00;2329.60;;;;;;4944140;28;20016;-79
2022/12/30 13:10:20;;;;;;;54.60;40.17;;;359.10;2329.60;;;;;;4942656;29;20066;-85
2022/12/30 13:13:12;;;;;;;47.38;35.05;;;359.30;2329.60;;;;;;4943589;29;20008;-85
2022/12/30 13:15:43;;;;;;;47.03;35.40;;;384.10;2329.60;;;;;;4943646;29;20016;-84
2022/12/30 13:18:18;;;;;;;49.00;36.80;;;384.10;2329.60;;;;;;4930304;29;20027;-89
2022/12/30 13:21:00;;;;;;;48.58;34.83;;;384.10;2329.60;;;;;;4946020;29;20027;-86
2022/12/30 13:23:32;;;;;;;47.97;32.95;;;359.30;2329.60;;;;;;4930636;29;20480;-85
2022/12/30 13:26:00;;;;;;;59.72;41.60;;;359.20;2329.60;;;;;;4942218;29;20059;-87
2022/12/30 13:28:28;;;;;;;83.30;57.33;;;359.20;2329.60;;;;;;4946516;29;20040;-87
2022/12/30 13:31:23;;;;;;;78.63;54.90;;;359.10;2329.60;;;;;;4950004;29;20032;-89
2022/12/30 13:33:58;;;;;;;78.70;57.05;;;359.10;2329.60;;;;;;4954046;29;20055;-86
2022/12/30 13:36:47;;;;;;;68.43;48.17;;;359.10;2329.60;;;;;;4946935;29;20027;-89
2022/12/30 13:39:29;;;;;;;72.13;52.70;;;359.20;2329.60;;;;;;4940337;29;20032;-88
2022/12/30 13:42:00;;;;;;;77.40;54.38;;;359.10;2329.60;;;;;;4940441;29;20095;-88
2022/12/30 13:44:33;;;;;;;80.43;55.10;;;359.10;2329.60;;;;;;4940435;29;20119;-88
2022/12/30 13:47:00;;;;;;;89.32;62.70;;;359.00;2329.60;;;;;;4940353;29;20067;-88
2022/12/30 13:49:30;;;;;;;95.93;67.22;;;359.00;2329.60;;;;;;4940152;29;20122;-89
2022/12/30 13:52:00;;;;;;;104.32;76.10;;;359.00;2329.60;;;;;;4939797;29;20079;-84
2022/12/30 13:54:28;;;;;;;120.13;88.22;;;358.90;2329.60;;;;;;4939509;29;20067;-84
2022/12/30 13:56:58;;;;;;;119.63;86.70;;;359.00;2329.60;;;;;;4939231;29;20028;-85
2022/12/30 13:59:31;;;;;;;110.22;79.43;;;359.00;2329.60;;;;;;4936327;29;20063;-83
2022/12/30 14:02:18;;;;;;;77.90;60.85;;;359.10;2329.60;;;;;;4928116;29;20465;-85
2022/12/30 14:04:53;;;;;;;82.18;61.88;;;359.10;2329.60;;;;;;4927442;29;20024;-83
2022/12/30 14:07:37;;;;;;;77.65;55.35;;;359.10;2329.60;;;;;;4931320;29;20023;-84
2022/12/30 14:10:17;;;;;;;72.35;52.15;;;359.10;2329.60;;;;;;4939127;29;20028;-84
2022/12/30 14:12:44;;;;;;;63.10;44.95;;;359.10;2329.60;;;;;;4929569;29;20028;-86
2022/12/30 14:15:50;;;;;;;60.50;46.33;;;358.90;2329.60;;;;;;4931775;29;20034;-85
2022/12/30 14:18:37;;;;;;;69.28;53.58;;;358.80;2329.60;;;;;;4933053;29;20063;-85
2022/12/30 14:21:30;;;;;;;106.50;72.88;;;358.70;2329.60;;;;;;4938010;29;20027;-86
2022/12/30 14:23:57;;;;;;;83.50;65.68;;;358.60;2329.60;;;;;;4907765;29;20035;-81
2022/12/30 14:26:26;;;;;;;111.57;82.13;;;358.50;2329.60;;;;;;4938122;29;20143;-86
2022/12/30 14:29:04;;;;;;;122.90;95.10;;;358.50;2329.60;;;;;;4939368;29;20028;-87
2022/12/30 14:31:48;;;;;;;115.22;84.80;;;333.70;2329.60;;;;;;4939153;29;20114;-86
2022/12/30 14:34:29;;;;;;;87.05;64.70;;;333.60;2329.60;;;;;;4938160;29;20539;-86
2022/12/30 14:37:19;;;;;;;90.57;64.43;;;333.50;2329.60;;;;;;4939117;29;20126;-86
2022/12/30 14:39:45;;;;;;;104.45;72.63;;;333.40;2329.60;;;;;;4938751;29;20039;-87
2022/12/30 14:42:24;;;;;;;102.78;73.75;;;333.30;2329.60;;;;;;4939027;29;20468;-86
2022/12/30 14:44:59;;;;;;;92.25;66.55;;;333.20;2329.60;;;;;;4938623;29;20035;-86
2022/12/30 14:47:42;;;;;;;77.25;57.83;;;333.00;2329.60;;;;;;4938349;29;20028;-86
2022/12/30 14:50:12;;;;;;;77.70;56.10;;;;;;;;;;4937972;29;20039;-87
2022/12/30 14:52:42;;;;;;;102.43;70.63;;;;;;;;;;4943118;29;20036;-86
2022/12/30 14:55:12;;;;;;;125.43;89.35;;;;;;;;;;4947597;29;20031;-86
2022/12/30 14:57:40;;;;;;;158.82;113.30;;;308.10;2304.00;;;;;;4947167;29;20030;-86
2022/12/30 15:00:09;;;;;;;175.95;122.50;;;307.80;2304.00;;;;;;4938630;29;20040;-86
2022/12/30 15:02:46;;;;;;;173.40;123.30;;;;;;;;;;4938380;29;20028;-86
2022/12/30 15:05:24;;;;;;;138.20;98.97;;;;;;;;;;4938602;29;20072;-86
2022/12/30 15:07:58;;;;;;;160.60;107.28;;;;;;;;;;4938464;29;20110;-87
2022/12/30 15:10:49;;;;;;;187.35;128.05;;;307.60;2304.00;;;;;;4939519;29;20084;-86
2022/12/30 15:13:20;;;;;;;163.18;112.32;;;;;;;;;;4938167;29;20032;-86
2022/12/30 15:15:48;;;;;;;195.15;128.02;;;;;;;;;;4938307;29;20020;-86
2022/12/30 15:18:30;;;;;;;177.68;122.18;;;307.30;2304.00;;;;;;4938168;29;20539;-89
2022/12/30 15:20:56;;;;;;;170.60;113.47;;;282.50;2278.40;;;;;;4938038;29;20027;-87
2022/12/30 15:23:23;;;;;;;177.52;118.85;;;;;;;;;;4938344;29;20039;-91
2022/12/30 15:25:56;;;;;;;213.73;138.73;;;;;;;;;;4937820;29;20051;-88
2022/12/30 15:28:22;;;;;;;226.00;156.20;;;;;;;;;;4938757;29;20024;-84
2022/12/30 15:30:49;;;;;;;244.02;172.18;;;;;;;;;;4929720;29;20079;-89
2022/12/30 15:33:15;;;;;;;280.20;192.80;;;;;;;;;;4918029;29;20473;-88
2022/12/30 15:35:42;;;;;;;269.48;187.70;;;;;;;;;;4916855;29;20119;-88
2022/12/30 15:38:15;;;;;;;244.68;165.50;;;;;;;;;;4917167;29;20032;-91
2022/12/30 15:40:43;;;;;;;359.42;241.35;;;;;;;;;;4918204;29;20092;-90
2022/12/30 15:43:15;;;;;;;302.08;205.70;;;282.20;2278.40;;;;;;4917135;29;20024;-89
2022/12/30 15:45:43;;;;;;;376.77;248.98;;;282.00;2278.40;;;;;;4917627;29;20083;-89
2022/12/30 15:48:39;;;;;;;400.42;259.10;;;281.90;2278.40;;;;;;4918396;29;20522;-90
2022/12/30 15:51:19;;;;;;;271.80;185.20;;;;;;;;;;4918703;29;20087;-90
2022/12/30 15:53:50;;;;;;;281.77;182.98;;;;;;;;;;4921719;29;20028;-89
2022/12/30 15:56:17;;;;;;;262.42;171.32;;;;;;;;;;4918332;29;20024;-91
2022/12/30 15:58:45;;;;;;;222.65;149.75;;;;;;;;;;4925602;29;20032;-92
2022/12/30 16:01:16;;;;;;;251.48;157.98;;;;;;;;;;4928948;29;20094;-91
2022/12/30 16:04:05;;;;;;;264.38;171.32;;;;;;;;;;4925157;29;20027;-92
2022/12/30 16:06:31;;;;;;;239.77;155.60;;;;;;;;;;4918418;29;20054;-92
2022/12/30 16:08:58;;;;;;;299.90;193.20;;;;;;;;;;4927950;29;20056;-92
2022/12/30 16:11:29;;;;;;;277.63;182.95;;;;;;;;;;4928447;29;20027;-89
2022/12/30 16:14:15;;;;;;;361.10;232.07;;;;;;;;;;4928281;29;20028;-92
2022/12/30 16:16:41;;;;;;;319.13;203.48;;;;;;;;;;4923393;29;20477;-91
2022/12/30 16:19:20;;;;;;;333.48;215.60;;;;;;;;;;4933171;29;20038;-90
2022/12/30 16:22:01;;;;;;;320.98;208.68;;;;;;;;;;4937367;29;20059;-88
2022/12/30 16:24:30;;;;;;;350.80;223.60;;;;;;;;;;4938080;29;20027;-90
2022/12/30 16:27:25;;;;;;;344.65;233.48;;;;;;;;;;4921212;29;20070;-89
2022/12/30 16:29:52;;;;;;;388.90;258.80;;;;;;;;;;4901553;29;20039;-91
2022/12/30 16:32:22;;;;;;;440.70;295.88;;;;;;;;;;4921204;29;20031;-90
2022/12/30 16:34:48;;;;;;;450.35;300.65;;;;;;;;;;4921055;29;20028;-90
2022/12/30 16:37:15;;;;;;;423.42;285.67;;;;;;;;;;4920867;29;20027;-91
2022/12/30 16:39:42;;;;;;;411.25;279.23;;;;;;;;;;4921037;29;20118;-90
2022/12/30 16:42:11;;;;;;;378.60;258.65;;;;;;;;;;4920709;29;20072;-90
2022/12/30 16:44:37;;;;;;;413.92;268.25;;;;;;;;;;4937684;29;20030;-89
2022/12/30 16:47:04;;;;;;;440.45;293.98;;;;;;;;;;4920833;29;20469;-90